Saint-Gedeon-De-Beauce, Canada
Current Conditions -  °F | °C
As of 2:54 PM on Friday 24 Oct 2014 (Local Time) from CYSC Reporting Station
Overcast Overcast  
Wind Chill: 44°   Ceiling: 1300
Heat Index: 46°   Visibility: 9mi
Dew Point: 43°   Wind: 5mph
Humidity: 87%   Direction: 10°N
Pressure: 29.78"   Gusts: NA
Location:  45.85°N, 70.65°W
Report Text: CYSC 241854Z AUTO 01004KT 340V050 9SM BKN013 OVC020 08/06 A2978 RMK SLP090
Loading
Personal Weather Stations






























Interactive Weather Map
Tropical Storm Tracking
New forecast layout! Learn more

10-Day Weather Forecast

Advertisements
Track Severe Weather on mobile